Aberdeen, Pennsylvania
Current Conditions -  °F | °C
As of 4:56 PM on Friday 19 Dec 2014 (Local Time) from KMDT Reporting Station
Few Clouds Few Clouds  
Wind Chill: 26°   Ceiling: Unl
Heat Index: 35°   Visibility: 10mi
Dew Point: 20°   Wind: 14mph
Humidity: 54%   Direction: 320°NW
Pressure: 30.15"   Gusts: NA
Location:  40.1674°N, 76.6045°W
Report Text: KMDT 192156Z 32012KT 10SM FEW040 02/M07 A3015 RMK AO2 SLP215 T00171067
Loading
Personal Weather Stations






























Interactive Weather Map New forecast layout! Learn more

10-Day Weather Forecast

Advertisements
Track Severe Weather on mobile